createdAt,value
2018-10-09T00:02:12.785Z,26.70
2018-10-09T00:04:40.991Z,26.70
2018-10-09T00:07:09.226Z,26.80
2018-10-09T00:09:37.441Z,26.20
2018-10-09T00:12:05.654Z,25.97
2018-10-09T00:14:33.852Z,26.67
2018-10-09T00:17:02.065Z,26.60
2018-10-09T00:19:30.345Z,24.63
2018-10-09T00:21:58.565Z,26.07
2018-10-09T00:24:26.754Z,24.67
2018-10-09T00:26:54.964Z,23.17
2018-10-09T00:29:23.235Z,25.73
2018-10-09T00:31:51.504Z,28.43
2018-10-09T00:34:19.716Z,28.17
2018-10-09T00:36:47.945Z,24.87
2018-10-09T00:39:16.175Z,25.13
2018-10-09T00:41:44.375Z,25.80
2018-10-09T00:44:12.684Z,26.03
2018-10-09T00:46:40.902Z,26.03
2018-10-09T00:49:09.118Z,25.93
2018-10-09T00:51:37.304Z,25.67
2018-10-09T00:54:05.510Z,24.93
2018-10-09T00:56:33.764Z,24.17
2018-10-09T00:59:02.101Z,24.53
2018-10-09T01:01:30.294Z,24.23
2018-10-09T01:03:58.539Z,23.80
2018-10-09T01:06:26.787Z,23.83
2018-10-09T01:08:55.060Z,24.27
2018-10-09T01:11:23.296Z,23.90
2018-10-09T01:13:51.577Z,24.73
2018-10-09T01:16:19.778Z,26.13
2018-10-09T01:18:47.989Z,24.60
2018-10-09T01:21:16.194Z,24.33
2018-10-09T01:23:44.388Z,24.80
2018-10-09T01:26:19.265Z,28.00
2018-10-09T01:28:47.458Z,27.23
2018-10-09T01:31:15.655Z,25.60
2018-10-09T01:33:43.852Z,26.00
2018-10-09T01:36:12.061Z,26.87
2018-10-09T01:38:40.315Z,27.77
2018-10-09T01:41:08.482Z,27.70
2018-10-09T01:43:36.692Z,29.43
2018-10-09T01:46:04.912Z,27.27
2018-10-09T01:48:33.108Z,28.20
2018-10-09T01:51:01.346Z,29.63
2018-10-09T01:53:29.529Z,31.30
2018-10-09T01:55:57.808Z,30.17
2018-10-09T01:58:26.005Z,30.97
2018-10-09T02:00:54.224Z,30.37
2018-10-09T02:03:22.450Z,30.77
2018-10-09T02:05:50.624Z,30.43
2018-10-09T02:08:18.865Z,28.40
2018-10-09T02:10:47.060Z,28.17
2018-10-09T02:13:15.258Z,27.80
2018-10-09T02:15:43.447Z,26.83
2018-10-09T02:18:11.633Z,26.83
2018-10-09T02:20:39.862Z,28.67
2018-10-09T02:23:08.061Z,25.93
2018-10-09T02:25:36.264Z,27.43
2018-10-09T02:28:04.476Z,27.40
2018-10-09T02:30:32.664Z,27.63
2018-10-09T02:33:00.917Z,26.67
2018-10-09T02:35:29.128Z,26.87
2018-10-09T02:37:57.348Z,29.87
2018-10-09T02:40:26.348Z,28.37
2018-10-09T02:42:54.555Z,32.53
2018-10-09T02:45:22.785Z,31.67
2018-10-09T02:47:50.973Z,31.10
2018-10-09T02:50:19.220Z,31.80
2018-10-09T02:52:47.441Z,30.57
2018-10-09T02:55:15.655Z,31.27
2018-10-09T02:57:43.977Z,32.47
2018-10-09T03:00:12.212Z,30.77
2018-10-09T03:02:40.429Z,30.77
2018-10-09T03:05:08.684Z,31.73
2018-10-09T03:07:36.872Z,30.90
2018-10-09T03:10:05.156Z,27.87
2018-10-09T03:12:33.332Z,27.97
2018-10-09T03:15:01.576Z,30.93
2018-10-09T03:17:29.768Z,30.83
2018-10-09T03:19:57.964Z,29.40
2018-10-09T03:22:26.200Z,32.10
2018-10-09T03:24:54.404Z,30.33
2018-10-09T03:27:22.605Z,31.57
2018-10-09T03:29:50.799Z,30.70
2018-10-09T03:32:18.996Z,31.17
2018-10-09T03:34:47.232Z,31.07
2018-10-09T03:37:15.408Z,29.77
2018-10-09T03:39:43.612Z,29.60
2018-10-09T03:42:11.800Z,31.47
2018-10-09T03:44:39.965Z,32.87
2018-10-09T03:47:08.213Z,32.67
2018-10-09T03:49:36.647Z,33.17
2018-10-09T03:52:04.874Z,35.13
2018-10-09T03:54:33.100Z,33.80
2018-10-09T03:57:01.323Z,36.27
2018-10-09T03:59:29.599Z,31.50
2018-10-09T04:01:57.840Z,31.60
2018-10-09T04:04:26.030Z,31.27
2018-10-09T04:06:54.295Z,32.13
2018-10-09T04:09:22.482Z,34.50
2018-10-09T04:11:50.700Z,35.70
2018-10-09T04:14:18.888Z,32.87
2018-10-09T04:16:47.065Z,36.93
2018-10-09T04:19:15.276Z,35.57
2018-10-09T04:21:43.484Z,39.67
2018-10-09T04:24:11.712Z,42.13
2018-10-09T04:26:39.901Z,44.90
2018-10-09T04:29:08.113Z,46.70
2018-10-09T04:31:36.319Z,47.40
2018-10-09T04:34:04.528Z,46.27
2018-10-09T04:36:32.785Z,43.93
2018-10-09T04:39:00.986Z,44.10
2018-10-09T04:41:29.228Z,47.10
2018-10-09T04:43:57.441Z,47.50
2018-10-09T04:46:25.677Z,47.87
2018-10-09T04:48:53.911Z,49.60
2018-10-09T04:51:22.130Z,48.77
2018-10-09T04:53:50.312Z,48.80
2018-10-09T04:56:18.562Z,49.70
2018-10-09T04:58:46.833Z,48.80
2018-10-09T05:01:15.073Z,49.97
2018-10-09T05:03:43.240Z,51.03
2018-10-09T05:06:11.416Z,54.73
2018-10-09T05:08:39.584Z,53.43
2018-10-09T05:11:07.764Z,59.10
2018-10-09T05:13:35.977Z,59.37
2018-10-09T05:16:04.331Z,63.50
2018-10-09T05:18:32.509Z,61.93
2018-10-09T05:21:00.708Z,59.47
2018-10-09T05:23:28.960Z,61.93
2018-10-09T05:25:57.188Z,66.80
2018-10-09T05:28:25.364Z,69.23
2018-10-09T05:30:53.542Z,60.80
2018-10-09T05:33:21.816Z,66.27
2018-10-09T05:35:50.014Z,61.27
2018-10-09T05:38:18.212Z,58.53
2018-10-09T05:40:46.432Z,62.47
2018-10-09T05:43:14.601Z,58.87
2018-10-09T05:45:42.760Z,59.00
2018-10-09T05:48:11.036Z,61.50
2018-10-09T05:50:39.597Z,62.83
2018-10-09T05:53:07.763Z,66.93
2018-10-09T05:55:36.631Z,63.20
2018-10-09T05:58:04.923Z,63.37
2018-10-09T06:00:33.085Z,61.20
2018-10-09T06:03:01.276Z,56.80
2018-10-09T06:05:30.084Z,59.57
2018-10-09T06:07:58.264Z,61.33
2018-10-09T06:10:26.445Z,61.50
2018-10-09T06:12:54.629Z,60.73
2018-10-09T06:15:22.811Z,62.33
2018-10-09T06:17:50.978Z,58.13
2018-10-09T06:20:19.204Z,57.57
2018-10-09T06:22:47.480Z,57.40
2018-10-09T06:25:15.729Z,61.20
2018-10-09T06:27:43.976Z,60.00
2018-10-09T06:30:12.152Z,62.87
2018-10-09T06:32:40.382Z,68.80
2018-10-09T06:35:08.548Z,67.90
2018-10-09T06:37:36.716Z,66.47
2018-10-09T06:40:04.992Z,66.00
2018-10-09T06:42:33.195Z,63.53
2018-10-09T06:45:01.496Z,61.33
2018-10-09T06:47:29.717Z,62.03
2018-10-09T06:49:57.880Z,61.00
2018-10-09T06:52:26.073Z,59.77
2018-10-09T06:54:54.317Z,57.20
2018-10-09T06:57:22.495Z,59.07
2018-10-09T06:59:50.707Z,60.80
2018-10-09T07:02:18.885Z,62.63
2018-10-09T07:04:47.069Z,61.00
2018-10-09T07:07:15.251Z,57.30
2018-10-09T07:09:43.481Z,57.73
2018-10-09T07:12:11.664Z,55.50
2018-10-09T07:14:39.842Z,57.10
2018-10-09T07:17:08.095Z,54.50
2018-10-09T07:19:36.241Z,55.20
2018-10-09T07:22:04.481Z,55.93
2018-10-09T07:24:32.793Z,57.57
2018-10-09T07:27:01.201Z,58.00
2018-10-09T07:29:29.369Z,56.23
2018-10-09T07:31:57.540Z,56.53
2018-10-09T07:34:25.761Z,54.37
2018-10-09T07:36:53.936Z,56.57
2018-10-09T07:39:22.096Z,56.73
2018-10-09T07:41:50.265Z,57.47
2018-10-09T07:44:18.468Z,57.20
2018-10-09T07:46:46.697Z,53.50
2018-10-09T07:49:14.901Z,59.50
2018-10-09T07:51:43.082Z,57.87
2018-10-09T07:54:11.293Z,57.77
2018-10-09T07:56:39.525Z,56.03
2018-10-09T07:59:07.770Z,56.97
2018-10-09T08:01:35.937Z,56.50
2018-10-09T08:04:04.140Z,57.37
2018-10-09T08:06:32.356Z,57.67
2018-10-09T08:09:00.649Z,55.10
2018-10-09T08:11:28.882Z,56.80
2018-10-09T08:13:57.724Z,56.23
2018-10-09T08:19:00.960Z,57.87
2018-10-09T08:21:29.160Z,58.03
2018-10-09T08:23:57.379Z,59.93
2018-10-09T08:26:25.658Z,59.60
2018-10-09T08:28:53.924Z,59.13
2018-10-09T08:31:22.124Z,58.30
2018-10-09T08:33:50.406Z,59.43
2018-10-09T08:36:18.628Z,55.67
2018-10-09T08:38:46.924Z,59.93
2018-10-09T08:41:15.158Z,56.17
2018-10-09T08:43:43.417Z,55.50
2018-10-09T08:46:11.656Z,56.20
2018-10-09T08:48:40.341Z,56.63
2018-10-09T08:51:08.532Z,55.63
2018-10-09T08:53:36.724Z,55.67
2018-10-09T08:56:04.916Z,61.63
2018-10-09T08:58:33.101Z,57.40
2018-10-09T09:01:01.312Z,59.30
2018-10-09T09:03:29.501Z,55.83
2018-10-09T09:05:57.696Z,53.67
2018-10-09T09:08:25.872Z,51.80
2018-10-09T09:10:54.057Z,52.30
2018-10-09T09:13:22.268Z,51.73
2018-10-09T09:15:50.500Z,48.40
2018-10-09T09:18:18.699Z,52.17
2018-10-09T09:20:46.965Z,48.33
2018-10-09T09:23:15.149Z,50.70
2018-10-09T09:25:43.437Z,47.83
2018-10-09T09:28:11.789Z,47.47
2018-10-09T09:30:39.977Z,47.57
2018-10-09T09:33:08.191Z,48.10
2018-10-09T09:35:36.445Z,46.67
2018-10-09T09:38:04.672Z,47.07
2018-10-09T09:40:32.871Z,47.77
2018-10-09T09:43:01.058Z,47.77
2018-10-09T09:45:29.249Z,48.90
2018-10-09T09:47:57.444Z,44.27
2018-10-09T09:50:25.648Z,48.20
2018-10-09T09:52:53.825Z,44.37
2018-10-09T09:55:21.996Z,45.83
2018-10-09T09:57:50.264Z,45.13
2018-10-09T10:00:23.796Z,46.13
2018-10-09T10:02:52.041Z,44.30
2018-10-09T10:05:20.232Z,41.63
2018-10-09T10:07:48.417Z,40.67
2018-10-09T10:10:16.624Z,40.60
2018-10-09T10:12:44.809Z,40.10
2018-10-09T10:15:13.029Z,39.37
2018-10-09T10:17:41.192Z,37.77
2018-10-09T10:20:09.428Z,38.20
2018-10-09T10:22:37.748Z,38.97
2018-10-09T10:25:05.949Z,38.03
2018-10-09T10:27:34.340Z,37.50
2018-10-09T10:30:02.521Z,34.97
2018-10-09T10:32:30.774Z,34.40
2018-10-09T10:34:58.957Z,32.63
2018-10-09T10:37:27.125Z,32.03
2018-10-09T10:39:55.373Z,29.93
2018-10-09T10:42:23.558Z,30.40
2018-10-09T10:44:51.740Z,31.13
2018-10-09T10:47:19.932Z,31.57
2018-10-09T10:49:48.109Z,27.33
2018-10-09T10:52:16.329Z,26.20
2018-10-09T10:54:44.528Z,26.30
2018-10-09T10:57:12.722Z,25.70
2018-10-09T10:59:40.905Z,26.67
2018-10-09T11:02:09.108Z,25.93
2018-10-09T11:04:37.335Z,26.87
2018-10-09T11:07:05.517Z,25.73
2018-10-09T11:09:33.713Z,23.10
2018-10-09T11:12:01.904Z,21.10
2018-10-09T11:14:30.101Z,20.10
2018-10-09T11:16:58.337Z,21.67
2018-10-09T11:19:26.514Z,20.40
2018-10-09T11:21:54.676Z,20.03
2018-10-09T11:24:22.864Z,21.17
2018-10-09T11:26:51.021Z,21.93
2018-10-09T11:29:19.364Z,25.40
2018-10-09T11:31:47.570Z,23.87
2018-10-09T11:34:15.805Z,19.67
2018-10-09T11:36:43.965Z,17.30
2018-10-09T11:39:12.208Z,16.00
2018-10-09T11:41:40.404Z,17.53
2018-10-09T11:44:08.602Z,15.33
2018-10-09T11:46:37.333Z,16.43
2018-10-09T11:49:06.056Z,15.33
2018-10-09T11:51:34.233Z,14.70
2018-10-09T11:54:02.525Z,17.17
2018-10-09T11:56:30.903Z,16.17
2018-10-09T11:58:59.130Z,17.10
2018-10-09T12:01:27.335Z,14.47
2018-10-09T12:03:55.507Z,14.23
2018-10-09T12:06:23.745Z,15.63
2018-10-09T12:08:51.901Z,13.80
2018-10-09T12:11:20.092Z,14.37
2018-10-09T12:13:48.280Z,13.28
2018-10-09T12:16:16.633Z,14.13
2018-10-09T12:18:44.852Z,14.90
2018-10-09T12:21:13.035Z,12.90
2018-10-09T12:23:41.198Z,13.40
2018-10-09T12:26:09.360Z,12.90
2018-10-09T12:28:37.524Z,14.73
2018-10-09T12:31:05.799Z,13.10
2018-10-09T12:33:33.953Z,12.30
2018-10-09T12:36:02.128Z,11.40
2018-10-09T12:38:30.361Z,12.78
2018-10-09T12:40:58.579Z,11.57
2018-10-09T12:43:26.836Z,11.28
2018-10-09T12:45:55.184Z,12.13
2018-10-09T12:48:23.393Z,11.45
2018-10-09T12:50:51.551Z,10.70
2018-10-09T12:53:19.759Z,10.67
2018-10-09T12:55:48.045Z,10.23
2018-10-09T12:58:16.222Z,11.37
2018-10-09T13:00:44.433Z,11.50
2018-10-09T13:03:12.682Z,10.93
2018-10-09T13:05:40.809Z,10.13
2018-10-09T13:08:09.034Z,10.70
2018-10-09T13:10:37.188Z,9.30
2018-10-09T13:13:05.378Z,9.83
2018-10-09T13:15:33.557Z,9.47
2018-10-09T13:18:01.737Z,10.40
2018-10-09T13:20:29.946Z,9.27
2018-10-09T13:22:58.183Z,8.93
2018-10-09T13:25:26.335Z,9.23
2018-10-09T13:27:54.533Z,8.53
2018-10-09T13:30:22.838Z,9.10
2018-10-09T13:32:51.076Z,8.70
2018-10-09T13:35:19.237Z,8.67
2018-10-09T13:37:47.461Z,8.70
2018-10-09T13:40:15.629Z,8.83
2018-10-09T13:42:43.821Z,8.73
2018-10-09T13:45:12.046Z,9.43
2018-10-09T13:47:40.317Z,8.70
2018-10-09T13:50:08.425Z,9.50
2018-10-09T13:52:36.610Z,9.00
2018-10-09T13:55:04.799Z,8.20
2018-10-09T13:57:33.022Z,9.00
2018-10-09T14:00:01.203Z,9.53
2018-10-09T14:02:29.368Z,9.00
2018-10-09T14:04:57.525Z,10.40
2018-10-09T14:07:25.713Z,9.83
2018-10-09T14:09:53.892Z,8.27
2018-10-09T14:12:22.052Z,9.63
2018-10-09T14:14:50.243Z,9.00
2018-10-09T14:17:18.415Z,9.87
2018-10-09T14:19:46.569Z,9.20
2018-10-09T14:22:14.829Z,10.00
2018-10-09T14:24:43.021Z,9.57
2018-10-09T14:27:11.200Z,9.73
2018-10-09T14:29:39.408Z,10.03
2018-10-09T14:32:07.597Z,9.60
2018-10-09T14:34:35.814Z,9.30
2018-10-09T14:37:04.042Z,16.87
2018-10-09T14:39:32.241Z,14.10
2018-10-09T14:42:00.422Z,21.23
2018-10-09T14:44:28.584Z,19.43
2018-10-09T14:46:56.803Z,17.37
2018-10-09T14:49:25.248Z,13.67
2018-10-09T14:51:53.412Z,12.00
2018-10-09T14:54:21.595Z,11.10
2018-10-09T14:56:49.789Z,10.63
2018-10-09T14:59:18.008Z,10.30
2018-10-09T15:01:46.184Z,10.83
2018-10-09T15:04:14.437Z,10.07
2018-10-09T15:06:42.672Z,9.97
2018-10-09T15:09:12.532Z,10.73
2018-10-09T15:11:41.048Z,10.30
2018-10-09T15:14:09.211Z,10.33
2018-10-09T15:16:37.489Z,11.57
2018-10-09T15:19:06.045Z,11.37
2018-10-09T15:21:34.226Z,11.13
2018-10-09T15:24:02.540Z,10.57
2018-10-09T15:26:30.721Z,12.70
2018-10-09T15:28:59.130Z,11.60
2018-10-09T15:31:27.462Z,12.33
2018-10-09T15:33:55.637Z,13.30
2018-10-09T15:36:23.849Z,12.43
2018-10-09T15:38:52.016Z,13.50
2018-10-09T15:41:20.289Z,17.73
2018-10-09T15:43:48.464Z,19.33
2018-10-09T15:46:16.652Z,18.93
2018-10-09T15:48:44.949Z,19.50
2018-10-09T15:51:13.148Z,19.30
2018-10-09T15:53:41.431Z,21.37
2018-10-09T15:56:09.594Z,20.40
2018-10-09T15:58:37.792Z,23.77
2018-10-09T16:01:06.065Z,23.77
2018-10-09T16:03:34.232Z,28.73
2018-10-09T16:06:02.425Z,30.13
2018-10-09T16:08:30.615Z,31.07
2018-10-09T16:10:58.768Z,32.57
2018-10-09T16:13:27.001Z,43.43
2018-10-09T16:15:55.349Z,49.97
2018-10-09T16:18:23.529Z,50.80
2018-10-09T16:20:51.812Z,59.30
2018-10-09T16:23:19.932Z,57.63
2018-10-09T16:25:48.178Z,63.97
2018-10-09T16:28:16.416Z,78.00
2018-10-09T16:30:44.585Z,82.70
2018-10-09T16:33:12.758Z,82.87
2018-10-09T16:35:40.936Z,94.17
2018-10-09T16:38:09.198Z,96.10
2018-10-09T16:40:37.488Z,96.07
2018-10-09T16:43:05.760Z,80.17
2018-10-09T16:45:33.980Z,68.70
2018-10-09T16:48:02.204Z,67.73
2018-10-09T16:50:30.480Z,64.77
2018-10-09T16:52:58.701Z,72.97
2018-10-09T16:55:26.969Z,73.03
2018-10-09T16:57:55.181Z,63.67
2018-10-09T17:00:23.507Z,57.27
2018-10-09T17:02:51.699Z,60.23
2018-10-09T17:05:19.930Z,69.33
2018-10-09T17:07:48.129Z,87.10
2018-10-09T17:10:16.342Z,98.67
2018-10-09T17:12:44.590Z,83.00
2018-10-09T17:15:12.838Z,89.03
2018-10-09T17:17:41.037Z,90.93
2018-10-09T17:20:09.259Z,81.37
2018-10-09T17:22:37.465Z,75.27
2018-10-09T17:25:05.693Z,71.33
2018-10-09T17:27:33.950Z,71.30
2018-10-09T17:30:02.163Z,110.90
2018-10-09T17:32:30.502Z,140.77
2018-10-09T17:34:58.734Z,141.77
2018-10-09T17:37:26.980Z,119.47
2018-10-09T17:39:55.283Z,116.80
2018-10-09T17:42:23.485Z,124.97
2018-10-09T17:44:51.705Z,137.73
2018-10-09T17:47:19.918Z,141.87
2018-10-09T17:49:48.117Z,142.40
2018-10-09T17:52:16.362Z,130.00
2018-10-09T17:54:44.597Z,132.50
2018-10-09T17:57:12.836Z,159.43
2018-10-09T17:59:41.038Z,155.13
2018-10-09T18:02:09.264Z,172.73
2018-10-09T18:04:37.541Z,212.40
2018-10-09T18:07:05.770Z,247.90
2018-10-09T18:09:34.017Z,245.90
2018-10-09T18:12:02.251Z,230.93
2018-10-09T18:14:30.522Z,191.43
2018-10-09T18:16:58.796Z,149.27
2018-10-09T18:19:27.010Z,134.80
2018-10-09T18:21:55.229Z,123.13
2018-10-09T18:24:23.454Z,109.77
2018-10-09T18:26:51.710Z,95.77
2018-10-09T18:29:19.972Z,90.63
2018-10-09T18:31:48.191Z,88.17
2018-10-09T18:34:16.385Z,75.23
2018-10-09T18:36:44.599Z,64.53
2018-10-09T18:39:16.063Z,55.63
2018-10-09T18:41:45.163Z,51.43
2018-10-09T18:44:13.632Z,46.67
2018-10-09T18:46:41.962Z,43.87
2018-10-09T18:49:10.208Z,53.93
2018-10-09T18:51:38.533Z,47.17
2018-10-09T18:54:06.852Z,45.33
2018-10-09T18:56:35.078Z,48.13
2018-10-09T18:59:03.316Z,48.57
2018-10-09T19:01:31.501Z,49.90
2018-10-09T19:03:59.794Z,48.63
2018-10-09T19:06:28.063Z,52.97
2018-10-09T19:08:56.248Z,49.73
2018-10-09T19:11:26.072Z,48.57
2018-10-09T19:13:54.875Z,51.60
2018-10-09T19:16:23.132Z,50.53
2018-10-09T19:18:51.540Z,52.20
2018-10-09T19:21:19.740Z,48.60
2018-10-09T19:23:48.007Z,47.57
2018-10-09T19:26:16.287Z,46.73
2018-10-09T19:28:44.482Z,44.23
2018-10-09T19:31:12.748Z,46.03
2018-10-09T19:33:40.928Z,49.90
2018-10-09T19:36:09.131Z,55.23
2018-10-09T19:38:37.313Z,53.03
2018-10-09T19:41:05.496Z,52.97
2018-10-09T19:43:33.764Z,53.07
2018-10-09T19:46:01.957Z,54.70
2018-10-09T19:48:30.156Z,51.83
2018-10-09T19:50:58.470Z,50.23
2018-10-09T19:53:26.627Z,50.00
2018-10-09T19:55:54.860Z,51.10
2018-10-09T19:58:23.057Z,52.80
2018-10-09T20:00:51.381Z,50.63
2018-10-09T20:03:19.609Z,51.03
2018-10-09T20:05:47.851Z,55.03
2018-10-09T20:08:16.183Z,52.80
2018-10-09T20:10:45.210Z,52.40
2018-10-09T20:13:13.416Z,55.60
2018-10-09T20:15:41.676Z,53.37
2018-10-09T20:18:09.921Z,55.87
2018-10-09T20:20:38.182Z,51.60
2018-10-09T20:23:06.419Z,50.50
2018-10-09T20:25:34.685Z,51.10
2018-10-09T20:28:02.921Z,52.27
2018-10-09T20:30:31.195Z,49.27
2018-10-09T20:32:59.452Z,51.23
2018-10-09T20:35:28.882Z,49.00
2018-10-09T20:37:57.180Z,47.63
2018-10-09T20:40:25.393Z,49.63
2018-10-09T20:42:53.604Z,49.87
2018-10-09T20:45:21.872Z,51.03
2018-10-09T20:47:50.121Z,52.93
2018-10-09T20:50:18.814Z,53.43
2018-10-09T20:52:47.088Z,52.47
2018-10-09T20:55:15.349Z,51.20
2018-10-09T20:57:43.610Z,50.57
2018-10-09T21:00:11.931Z,51.97
2018-10-09T21:02:40.135Z,51.57
2018-10-09T21:05:08.473Z,51.07
2018-10-09T21:07:36.728Z,52.37
2018-10-09T21:10:05.039Z,51.17
2018-10-09T21:12:33.299Z,53.33
2018-10-09T21:15:01.846Z,49.90
2018-10-09T21:17:30.248Z,52.63
2018-10-09T21:19:58.718Z,52.53
2018-10-09T21:22:27.033Z,56.10
2018-10-09T21:24:55.285Z,55.67
2018-10-09T21:27:23.662Z,53.30
2018-10-09T21:29:51.892Z,54.00
2018-10-09T21:32:20.196Z,54.10
2018-10-09T21:34:48.489Z,51.70
2018-10-09T21:37:16.734Z,56.37
2018-10-09T21:39:45.058Z,53.43
2018-10-09T21:42:13.304Z,54.03
2018-10-09T21:44:41.636Z,56.93
2018-10-09T21:47:10.040Z,50.53
2018-10-09T21:49:38.282Z,53.17
2018-10-09T21:52:07.151Z,52.63
2018-10-09T21:54:35.433Z,52.97
2018-10-09T21:57:03.881Z,52.17
2018-10-09T21:59:32.103Z,52.33
2018-10-09T22:02:00.974Z,51.93
2018-10-09T22:04:29.222Z,52.40
2018-10-09T22:06:57.421Z,54.90
2018-10-09T22:09:25.774Z,53.87
2018-10-09T22:11:54.026Z,54.10
2018-10-09T22:14:22.313Z,51.70
2018-10-09T22:16:50.518Z,51.57
2018-10-09T22:19:18.836Z,52.23
2018-10-09T22:21:47.402Z,52.13
2018-10-09T22:24:15.660Z,51.57
2018-10-09T22:26:43.888Z,51.93
2018-10-09T22:29:12.120Z,51.93
2018-10-09T22:31:40.371Z,46.67
2018-10-09T22:34:08.618Z,47.13
2018-10-09T22:36:36.850Z,45.13
2018-10-09T22:39:06.444Z,48.37
2018-10-09T22:41:34.773Z,49.70
2018-10-09T22:44:03.066Z,48.10
2018-10-09T22:46:31.319Z,46.17
2018-10-09T22:48:59.521Z,47.80
2018-10-09T22:51:27.758Z,48.50
2018-10-09T22:53:55.941Z,52.30
2018-10-09T22:56:24.176Z,54.03
2018-10-09T22:58:52.464Z,53.17
2018-10-09T23:01:20.670Z,48.83
2018-10-09T23:03:48.874Z,48.43
2018-10-09T23:06:17.129Z,47.40
2018-10-09T23:08:45.337Z,49.33
2018-10-09T23:11:13.587Z,49.10
2018-10-09T23:13:41.786Z,46.53
2018-10-09T23:16:09.991Z,48.13
2018-10-09T23:18:38.243Z,46.87
2018-10-09T23:21:06.812Z,47.10
2018-10-09T23:23:35.045Z,48.43
2018-10-09T23:26:03.281Z,45.97
2018-10-09T23:28:31.484Z,49.53
2018-10-09T23:30:59.727Z,49.37
2018-10-09T23:33:27.916Z,50.27
2018-10-09T23:35:56.162Z,49.20
2018-10-09T23:38:24.391Z,49.23
2018-10-09T23:40:52.603Z,47.53
2018-10-09T23:43:20.930Z,49.97
2018-10-09T23:45:49.134Z,48.27
2018-10-09T23:48:17.355Z,47.23
2018-10-09T23:50:45.603Z,47.27
2018-10-09T23:53:13.808Z,46.37
2018-10-09T23:55:42.050Z,49.47
2018-10-09T23:58:10.313Z,49.97
